Flight Track Log - Related Links

Times and Time Zones

All times are in EDT time to prevent confusion due to time zone crossing. See the N8377L flight status page for this flight to view local times or setup timezone preferences in your user account.

Time Position Orientation Groundspeed Altitude Reporting Facility
EDT Latitude Longitude Course Direction KTS MPH feet Rate Location/Type
Sun 04:42:04 PM 46.2969 -119.2919 284° West 109 125 4,400  Level Seattle Center
Sun 04:43:05 PM 46.3125 -119.3303 300° West 111 128 5,200 738 Climbing Seattle Center
Sun 04:44:00 PM 46.3247 -119.3987 290° West  Level FlightAware Approximate
Sun 04:44:06 PM 46.3247 -119.3750 292° West 120 138 5,900  Level Seattle Center
Sun 04:45:00 PM 46.3333 -119.4469 270° West  Level FlightAware Approximate
Sun 04:45:07 PM 46.3358 -119.4203 290° West 119 137 6,600  Level Seattle Center
Sun 04:46:00 PM 46.3410 -119.4959 284° West  Level FlightAware Approximate
Sun 04:46:08 PM 46.3461 -119.4656 288° West 120 138 7,100  Level Seattle Center
Sun 04:47:00 PM 46.3492 -119.5449 284° West  Level FlightAware Approximate
Sun 04:47:09 PM 46.3553 -119.5108 286° West 118 136 7,600  Level Seattle Center
Sun 04:48:10 PM 46.3644 -119.5558 286° West 116 133 8,000 443 Climbing Seattle Center
Sun 04:49:11 PM 46.3747 -119.6031 288° West 121 139 8,500 590 Climbing Seattle Center
Sun 04:50:12 PM 46.3892 -119.6633 289° West 130 150 9,200 694 Climbing Seattle Center
Sun 04:51:12 PM 46.4014 -119.7114 290° West 128 147 9,900 645 Climbing Seattle Center
Sun 04:52:13 PM 46.4119 -119.7617 287° West 131 151 10,500 541 Climbing Seattle Center
Sun 04:53:14 PM 46.4225 -119.8131 287° West 134 154 11,000 492 Climbing Seattle Center
Sun 04:54:15 PM 46.4347 -119.8633 289° West 132 152 11,500 443 Climbing Seattle Center
Sun 04:55:16 PM 46.4467 -119.9142 289° West 133 153 11,900 246 Climbing Seattle Center
Sun 04:56:17 PM 46.4594 -119.9675 289° West 139 160 12,000  Climbing Seattle Center
Sun 04:57:18 PM 46.4722 -120.0194 290° West 137 158 11,900 49 Descending Seattle Center
Sun 04:58:19 PM 46.4861 -120.0722 291° West 139 160 12,100 49 Climbing Seattle Center
Sun 04:59:20 PM 46.4989 -120.1261 289° West 142 163 12,000 -98 Descending Seattle Center
Sun 05:00:22 PM 46.5119 -120.1825 289° West 147 169 11,900 49 Descending Seattle Center
Sun 05:01:22 PM 46.5236 -120.2356 288° West 139 160 12,100 50 Climbing Seattle Center
Sun 05:02:23 PM 46.5383 -120.3019 288° West 145 167 12,000 -49 Descending Seattle Center
Sun 05:03:24 PM 46.5514 -120.3578 289° West 146 168 12,000  Level Seattle Center
Sun 05:04:25 PM 46.5633 -120.4114 288° West 142 163 12,000 49 Level Seattle Center
Sun 05:05:26 PM 46.5753 -120.4658 288° West 141 162 12,100 49 Climbing Seattle Center
Sun 05:06:27 PM 46.5978 -120.5111 306° West 139 160 12,100 -49 Level Seattle Center
Sun 05:07:28 PM 46.6236 -120.5561 310° West 145 167 12,000 -49 Descending Seattle Center
Sun 05:08:29 PM 46.6472 -120.6022 307° West 144 166 12,000 49 Level Seattle Center
Sun 05:09:30 PM 46.6683 -120.6497 303° West 140 161 12,100 50 Climbing Seattle Center
Sun 05:10:30 PM 46.6897 -120.6967 304° West 139 160 12,100  Level Seattle Center
Sun 05:11:31 PM 46.7119 -120.7439 304° West 141 162 12,100 -49 Level Seattle Center
Sun 05:12:32 PM 46.7342 -120.7911 304° West 142 163 12,000  Descending Seattle Center
Sun 05:13:33 PM 46.7567 -120.8372 305° West 142 163 12,100 148 Climbing Seattle Center
Sun 05:14:34 PM 46.7792 -120.8844 305° West 141 162 12,300 49 Climbing Seattle Center
Sun 05:15:35 PM 46.8050 -120.9419 303° West 143 165 12,200 -148 Descending Seattle Center
Sun 05:16:36 PM 46.8281 -120.9917 304° West 148 170 12,000 -197 Descending Seattle Center
Sun 05:17:37 PM 46.8486 -121.0394 302° West 140 161 11,800 -246 Descending Seattle Center
Sun 05:18:38 PM 46.8711 -121.0847 306° West 139 160 11,500 -246 Descending Seattle Center
Sun 05:19:39 PM 46.8914 -121.1328 302° West 139 160 11,300 -246 Descending Seattle Center
Sun 05:20:40 PM 46.9153 -121.1775 308° West 138 159 11,000 -248 Descending Seattle Center
Sun 05:21:40 PM 46.9358 -121.2247 303° West 138 159 10,800 -198 Descending Seattle Center
Sun 05:22:41 PM 46.9583 -121.2739 304° West 142 163 10,600 -246 Descending Seattle Center
Sun 05:23:42 PM 46.9806 -121.3192 306° West 137 158 10,300 -246 Descending Seattle Center
Sun 05:24:43 PM 47.0006 -121.3678 301° West 140 161 10,100 -98 Descending Seattle Center
Sun 05:25:44 PM 47.0272 -121.4211 306° West 141 162 10,100  Level Seattle Center
Sun 05:26:45 PM 47.0492 -121.4656 306° West 136 157 10,100 -68 Level Seattle Center
Sun 05:27:12 PM 47.0575 -121.4875 299° West 134 154 10,000 -100 Descending Seattle Center
Sun 05:27:45 PM 47.0692 -121.5106 307° West 131 151 10,000 64 Level Seattle Center
Sun 05:28:46 PM 47.0839 -121.5600 294° West 132 152 10,100 49 Climbing Seattle Center
Sun 05:29:47 PM 47.0822 -121.6142 267° West 131 151 10,100 -246 Level Seattle Center
Sun 05:30:48 PM 47.0833 -121.6750 272° West 136 157 9,600 -443 Descending Seattle Center
Sun 05:31:49 PM 47.0861 -121.7289 274° West 135 155 9,200 -393 Descending Seattle Center
Sun 05:32:50 PM 47.0911 -121.7803 278° West 129 148 8,800 -397 Descending Seattle Center
Sun 05:33:50 PM 47.0972 -121.8311 280° West 127 146 8,400 -397 Descending Seattle Center
Sun 05:34:51 PM 47.0981 -121.8806 271° West 121 139 8,000 -197 Descending Seattle Center
Sun 05:35:52 PM 47.0931 -121.9292 261° West 122 140 8,000 -50 Level Seattle Center
Sun 05:36:50 PM 47.0897 -121.9783 264° West 122 140 7,900 -356 Descending Seattle Center
Sun 05:37:50 PM 47.0872 -122.0286 266° West 122 140 7,300 -645 Descending Seattle Center
Sun 05:38:51 PM 47.0847 -122.0792 266° West 122 140 6,600 -590 Descending Seattle Center
Sun 05:39:52 PM 47.0814 -122.1264 264° West 122 140 6,100 -541 Descending Seattle Center
Sun 05:40:53 PM 47.0767 -122.1778 262° West 120 138 5,500 -590 Descending Seattle Center
Sun 05:41:54 PM 47.0742 -122.2283 266° West 118 136 4,900 -720 Descending Seattle Center
Sun 05:42:58 PM 47.0789 -122.2794 278° West 120 138 4,000 -803 Descending Seattle Center
Sun 05:44:01 PM 47.0878 -122.3250 286° West 117 135 3,200 -492 Descending Seattle Center
Sun 05:45:00 PM 47.1022 -122.3681 296° West 117 135 3,000 -101 Descending Seattle Center
Sun 05:46:00 PM 47.1194 -122.4103 301° West 120 138 3,000  Level Seattle Center
Sun 05:47:01 PM 47.1383 -122.4508 304° West 122 140 3,000 -49 Level Seattle Center
Sun 05:48:02 PM 47.1619 -122.4867 314° West 122 140 2,900 -344 Descending Seattle Center
Sun 05:49:03 PM 47.1886 -122.5211 319° Northwest 120 138 2,300 -590 Descending Seattle Center
Sun 05:50:04 PM 47.2139 -122.5500 322° Northwest 116 133 1,700 -545 Descending Seattle Center
Sun 05:51:04 PM 47.2286 -122.5833 303° West 101 116 1,200 -640 Descending Seattle Center
Sun 05:51:19 PM 47.2333 -122.5842 353° North 94 108 900 -590 Descending Seattle Center
Sun 05:52:05 PM 47.2508 -122.5797 10° North 89 102 600 -224 Descending Seattle Center
Sun 05:53:06 PM 47.2728 -122.5761 North 88 101 500 -98 Descending Seattle Center

Login

Don't have an account? Register now (free) for customized features, flight alerts, and more!